Terminal Aerodrome Forecast
Issued by NWS

Home | Current Version | Previous Version | Text Only | Print | Product List | Glossary On
Versions: 1 2 3 4 5 6 7 8 9 10 11 12 13 14 15 16 17 18 19 20 21 22 23 24 25 26 27 28 29 30 31 32 33 34 35 36 37 38 39 40
965
FTUS44 KHGX 231742
TAFLBX
TAF
KLBX 231742Z 2318/2418 17009KT P6SM VCTS SCT035CB
     FM232100 17009KT P6SM SCT040
     FM240000 15004KT P6SM SCT250
     FM240900 VRB03KT P6SM SCT015
     FM241400 18010KT P6SM SCT025=

USA.gov is the U.S. government's official web portal to all federal, state and local government web resources and services.